Time;durP1;ratioP1;P1;durP2;ratioP2;P2;SDS_P1;SDS_P2;PMS_P1;PMS_P2;Temp;Humidity;BMP_temperature;BMP_pressure;BME280_temperature;BME280_humidity;BME280_pressure;Samples;Min_cycle;Max_cycle;Signal;HPM_P1;HPM_P2
2021/04/12 00:01:17;;;;;;;15.27;4.38;;;;;;;;;;4989252;28;20386;-66
2021/04/12 00:03:46;;;;;;;11.00;4.07;;;;;;;;;;4989893;28;20045;-65
2021/04/12 00:06:23;;;;;;;7.75;3.55;;;;;;;;;;4992720;28;20081;-64
2021/04/12 00:09:00;;;;;;;9.88;4.10;;;;;;;;;;4988280;28;20100;-65
2021/04/12 00:11:44;;;;;;;8.18;4.22;;;;;;;;;;4993025;28;20050;-65
2021/04/12 00:14:35;;;;;;;11.05;4.35;;;;;;;;;;4993859;28;20081;-62
2021/04/12 00:17:06;;;;;;;13.85;4.20;;;;;;;;;;4990321;28;20053;-64
2021/04/12 00:19:37;;;;;;;11.32;3.67;;;;;;;;;;4992942;28;20026;-65
2021/04/12 00:22:06;;;;;;;9.63;4.75;;;;;;;;;;4993439;28;20032;-66
2021/04/12 00:24:38;;;;;;;11.40;4.55;;;;;;;;;;4975349;28;20059;-63
2021/04/12 00:27:09;;;;;;;16.27;5.25;;;;;;;;;;4991387;28;20078;-66
2021/04/12 00:29:37;;;;;;;11.02;4.82;;;;;;;;;;4993404;28;20018;-63
2021/04/12 00:32:06;;;;;;;13.35;5.05;;;;;;;;;;5035455;23;20124;-66
2021/04/12 00:35:00;;;;;;;17.23;5.30;;;;;;;;;;5041697;28;20025;-66
2021/04/12 00:37:29;;;;;;;12.15;5.63;;;;;;;;;;5034569;28;20116;-66
2021/04/12 00:40:01;;;;;;;14.65;5.43;;;;;;;;;;5035743;28;20029;-65
2021/04/12 00:42:26;;;;;;;15.27;5.78;;;;;;;;;;5039740;28;20036;-65
2021/04/12 00:45:02;;;;;;;11.90;5.32;;;;;;;;;;5032680;28;20030;-66
2021/04/12 00:47:35;;;;;;;17.13;6.18;;;;;;;;;;5032621;28;20302;-65
2021/04/12 00:50:06;;;;;;;9.93;5.28;;;;;;;;;;5048327;28;20075;-66
2021/04/12 00:52:34;;;;;;;21.48;6.93;;;;;;;;;;5045223;28;20041;-65
2021/04/12 00:54:59;;;;;;;17.33;5.97;;;;;;;;;;5051627;28;20053;-65
2021/04/12 00:57:31;;;;;;;22.05;6.45;;;;;;;;;;5051709;28;20041;-65
2021/04/12 01:00:05;;;;;;;14.80;5.93;;;;;;;;;;5051315;28;20025;-65
2021/04/12 01:02:53;;;;;;;16.08;7.13;;;;;;;;;;5051586;28;20493;-65
2021/04/12 01:05:21;;;;;;;17.55;7.10;;;;;;;;;;5038861;28;20037;-65
2021/04/12 01:08:08;;;;;;;14.63;7.25;;;;;;;;;;5049625;28;20025;-65
2021/04/12 01:10:38;;;;;;;18.80;7.10;;;;;;;;;;5036133;28;20102;-66
2021/04/12 01:13:10;;;;;;;18.23;7.68;;;;;;;;;;5051359;28;20059;-65
2021/04/12 01:15:38;;;;;;;20.35;7.63;;;;;;;;;;5051608;28;20016;-65
2021/04/12 01:18:21;;;;;;;21.95;8.55;;;;;;;;;;5050360;28;20013;-67
2021/04/12 01:20:49;;;;;;;19.23;7.57;;;;;;;;;;5051045;28;20052;-66
2021/04/12 01:23:20;;;;;;;16.30;6.80;;;;;;;;;;5049888;28;20024;-67
2021/04/12 01:26:04;;;;;;;15.65;7.55;;;;;;;;;;5050521;28;20032;-67
2021/04/12 01:28:48;;;;;;;20.73;7.28;;;;;;;;;;5051440;28;20033;-66
2021/04/12 01:31:32;;;;;;;17.45;7.82;;;;;;;;;;5045141;28;20021;-66
2021/04/12 01:34:16;;;;;;;13.20;7.38;;;;;;;;;;5044112;28;20028;-65
2021/04/12 01:36:51;;;;;;;16.98;7.18;;;;;;;;;;5052340;28;20025;-66
2021/04/12 01:39:29;;;;;;;22.00;7.72;;;;;;;;;;5057064;28;20066;-65
2021/04/12 01:42:03;;;;;;;23.80;8.20;;;;;;;;;;5050640;28;20017;-65
2021/04/12 01:44:34;;;;;;;16.35;7.60;;;;;;;;;;5037030;28;20020;-65
2021/04/12 01:47:01;;;;;;;19.52;8.25;;;;;;;;;;5050206;28;20032;-65
2021/04/12 01:49:36;;;;;;;18.25;7.70;;;;;;;;;;5050226;28;20023;-66
2021/04/12 01:52:01;;;;;;;20.85;8.10;;;;;;;;;;5050599;28;20452;-65
2021/04/12 01:54:39;;;;;;;23.13;8.55;;;;;;;;;;5050559;28;20454;-65
2021/04/12 01:57:16;;;;;;;16.77;7.47;;;;;;;;;;5050439;28;20381;-65
2021/04/12 01:59:44;;;;;;;21.67;7.85;;;;;;;;;;5049976;28;20099;-66
2021/04/12 02:02:12;;;;;;;20.10;7.97;;;;;;;;;;5050279;28;20488;-67
2021/04/12 02:04:37;;;;;;;14.38;7.25;;;;;;;;;;5049574;28;20515;-67
2021/04/12 02:07:21;;;;;;;22.38;7.75;;;;;;;;;;5049618;28;20107;-65
2021/04/12 02:10:06;;;;;;;19.50;7.15;;;;;;;;;;5050652;28;20108;-65
2021/04/12 02:12:38;;;;;;;17.05;7.35;;;;;;;;;;5050112;28;20033;-66
2021/04/12 02:15:25;;;;;;;18.40;7.45;;;;;;;;;;5050410;28;20021;-64
2021/04/12 02:18:09;;;;;;;11.68;5.45;;;;;;;;;;5049984;28;20021;-65
2021/04/12 02:20:40;;;;;;;19.88;6.28;;;;;;;;;;5050894;28;20028;-65
2021/04/12 02:23:17;;;;;;;25.52;6.65;;;;;;;;;;5049688;28;20064;-64
2021/04/12 02:25:51;;;;;;;12.75;6.18;;;;;;;;;;5050286;28;20084;-64
2021/04/12 02:28:22;;;;;;;16.45;5.82;;;;;;;;;;5047935;28;20025;-64
2021/04/12 02:30:58;;;;;;;12.43;5.50;;;;;;;;;;5050059;28;20031;-65
2021/04/12 02:33:38;;;;;;;26.25;6.60;;;;;;;;;;5046578;28;20032;-65
2021/04/12 02:36:03;;;;;;;11.95;5.43;;;;;;;;;;5049985;28;20029;-65
2021/04/12 02:38:47;;;;;;;14.95;6.18;;;;;;;;;;5049125;28;20370;-65
2021/04/12 02:41:12;;;;;;;11.43;5.72;;;;;;;;;;5041202;28;20332;-65
2021/04/12 02:43:41;;;;;;;12.93;6.22;;;;;;;;;;5050090;28;20021;-65
2021/04/12 02:46:25;;;;;;;13.95;5.53;;;;;;;;;;5049679;28;20485;-65
2021/04/12 02:48:56;;;;;;;13.65;5.47;;;;;;;;;;5048458;28;20025;-64
2021/04/12 02:51:25;;;;;;;11.45;5.38;;;;;;;;;;5049695;28;20055;-66
2021/04/12 02:54:08;;;;;;;18.65;5.90;;;;;;;;;;5046219;28;20032;-66
2021/04/12 02:56:45;;;;;;;15.02;5.55;;;;;;;;;;5047353;28;20021;-66
2021/04/12 02:59:13;;;;;;;17.65;6.07;;;;;;;;;;5049564;28;20044;-66
2021/04/12 03:01:57;;;;;;;17.20;6.25;;;;;;;;;;5050238;28;20434;-66
2021/04/12 03:04:31;;;;;;;15.38;5.63;;;;;;;;;;5044449;28;20032;-65
2021/04/12 03:07:14;;;;;;;13.35;6.00;;;;;;;;;;5048952;28;20029;-66
2021/04/12 03:09:52;;;;;;;14.10;6.25;;;;;;;;;;5049875;28;20477;-65
2021/04/12 03:12:39;;;;;;;19.10;6.20;;;;;;;;;;5050258;28;20024;-66
2021/04/12 03:15:42;;;;;;;29.52;5.78;;;;;;;;;;5049640;28;20389;-65
2021/04/12 03:18:10;;;;;;;17.17;6.00;;;;;;;;;;4981607;28;20049;-66
2021/04/12 03:20:42;;;;;;;13.23;6.00;;;;;;;;;;4987103;28;20058;-65
2021/04/12 03:23:14;;;;;;;13.95;6.90;;;;;;;;;;5009370;28;20033;-66
2021/04/12 03:25:51;;;;;;;12.38;6.53;;;;;;;;;;5046421;28;20031;-65
2021/04/12 03:28:22;;;;;;;20.73;6.82;;;;;;;;;;5035981;28;20021;-66
2021/04/12 03:31:06;;;;;;;15.18;6.60;;;;;;;;;;5038892;28;20013;-64
2021/04/12 03:33:35;;;;;;;14.23;6.30;;;;;;;;;;5049886;28;20017;-64
2021/04/12 03:36:19;;;;;;;16.83;7.03;;;;;;;;;;5052615;28;20454;-66
2021/04/12 03:38:47;;;;;;;21.33;7.60;;;;;;;;;;5039977;28;20021;-65
2021/04/12 03:41:38;;;;;;;15.45;7.13;;;;;;;;;;5048661;28;20106;-66
2021/04/12 03:44:22;;;;;;;16.83;7.93;;;;;;;;;;5052989;28;20112;-65
2021/04/12 03:47:06;;;;;;;20.92;9.80;;;;;;;;;;5053172;28;20060;-65
2021/04/12 03:49:50;;;;;;;19.45;7.70;;;;;;;;;;5052910;28;20017;-64
2021/04/12 03:52:33;;;;;;;23.02;8.45;;;;;;;;;;5051596;28;20240;-66
2021/04/12 03:55:17;;;;;;;19.50;8.73;;;;;;;;;;5046864;28;20025;-66
2021/04/12 03:58:04;;;;;;;22.10;9.50;;;;;;;;;;5043950;28;20020;-65
2021/04/12 04:00:47;;;;;;;21.15;8.90;;;;;;;;;;5052702;28;20397;-65
2021/04/12 04:03:27;;;;;;;18.63;8.00;;;;;;;;;;5052835;28;20117;-66
2021/04/12 04:05:55;;;;;;;16.60;8.38;;;;;;;;;;5052375;28;20350;-64
2021/04/12 04:08:20;;;;;;;17.92;8.55;;;;;;;;;;5051913;28;20040;-64
2021/04/12 04:10:55;;;;;;;18.15;8.32;;;;;;;;;;5052581;28;20017;-66
2021/04/12 04:13:20;;;;;;;24.98;8.10;;;;;;;;;;5052424;28;20347;-64
2021/04/12 04:16:00;;;;;;;18.50;8.10;;;;;;;;;;5052538;28;20051;-66
2021/04/12 04:18:25;;;;;;;;;;;;;;;;;;5052665;28;20257;-65
2021/04/12 04:20:57;;;;;;;17.88;7.20;;;;;;;;;;5050387;28;19955;-65
2021/04/12 04:23:23;;;;;;;19.17;7.35;;;;;;;;;;5052596;28;20355;-64
2021/04/12 04:25:57;;;;;;;15.10;8.27;;;;;;;;;;5052113;28;20028;-64
2021/04/12 04:28:28;;;;;;;12.55;6.97;;;;;;;;;;5041326;28;20481;-64
2021/04/12 04:31:12;;;;;;;16.30;8.43;;;;;;;;;;5052193;28;20048;-64
2021/04/12 04:33:40;;;;;;;24.75;7.70;;;;;;;;;;5051370;28;20025;-64
2021/04/12 04:36:25;;;;;;;17.48;8.00;;;;;;;;;;5044379;28;20428;-65
2021/04/12 04:39:04;;;;;;;22.70;9.30;;;;;;;;;;5051659;28;20406;-64
2021/04/12 04:41:48;;;;;;;23.75;10.10;;;;;;;;;;5052265;28;20023;-64
2021/04/12 04:44:16;;;;;;;21.25;8.57;;;;;;;;;;5052080;28;20024;-65
2021/04/12 04:47:07;;;;;;;17.58;8.52;;;;;;;;;;5051107;28;20057;-65
2021/04/12 04:49:46;;;;;;;18.58;8.48;;;;;;;;;;5027998;28;20029;-64
2021/04/12 04:52:11;;;;;;;19.42;8.82;;;;;;;;;;5047422;28;20381;-65
2021/04/12 04:54:55;;;;;;;17.35;8.35;;;;;;;;;;5051956;28;20017;-66
2021/04/12 04:57:25;;;;;;;22.23;7.53;;;;;;;;;;5041976;28;20032;-65
2021/04/12 05:00:14;;;;;;;14.65;8.02;;;;;;;;;;5051638;28;20028;-65
2021/04/12 05:02:58;;;;;;;19.00;7.80;;;;;;;;;;5051369;28;20040;-64
2021/04/12 05:05:28;;;;;;;21.02;8.73;;;;;;;;;;5051164;28;20017;-65
2021/04/12 05:08:00;;;;;;;19.13;8.90;;;;;;;;;;5042504;28;20105;-67
2021/04/12 05:10:35;;;;;;;15.70;8.77;;;;;;;;;;5051797;28;20136;-65
2021/04/12 05:13:09;;;;;;;22.77;8.60;;;;;;;;;;5051260;28;20357;-64
2021/04/12 05:15:34;;;;;;;18.08;8.43;;;;;;;;;;5049808;28;20012;-63
2021/04/12 05:18:09;;;;;;;22.60;9.80;;;;;;;;;;5033855;28;20445;-63
2021/04/12 05:20:52;;;;;;;22.65;9.00;;;;;;;;;;5039521;28;20506;-62
2021/04/12 05:23:36;;;;;;;21.70;10.80;;;;;;;;;;5042669;28;20338;-63
2021/04/12 05:26:13;;;;;;;27.05;9.35;;;;;;;;;;5052155;28;20029;-64
2021/04/12 05:28:57;;;;;;;15.52;8.70;;;;;;;;;;5049176;28;20082;-65
2021/04/12 05:31:31;;;;;;;23.27;9.73;;;;;;;;;;5048022;28;20021;-63
2021/04/12 05:34:08;;;;;;;23.98;10.43;;;;;;;;;;5046375;28;20112;-64
2021/04/12 05:36:49;;;;;;;22.20;11.18;;;;;;;;;;5048574;28;20051;-64
2021/04/12 05:39:14;;;;;;;;;;;;;;;;;;5042955;28;20034;-65
2021/04/12 05:41:45;;;;;;;25.55;10.57;;;;;;;;;;5047163;28;19912;-66
2021/04/12 05:44:28;;;;;;;24.15;10.10;;;;;;;;;;5054564;28;20020;-64
2021/04/12 05:47:00;;;;;;;28.85;11.70;;;;;;;;;;5038673;28;20108;-64
2021/04/12 05:49:43;;;;;;;20.98;10.48;;;;;;;;;;5048341;28;20025;-64
2021/04/12 05:52:11;;;;;;;23.40;10.80;;;;;;;;;;5041928;28;20017;-64
2021/04/12 05:54:55;;;;;;;26.05;12.57;;;;;;;;;;5045319;28;20087;-65
2021/04/12 05:57:27;;;;;;;25.83;11.90;;;;;;;;;;5031363;28;20029;-64
2021/04/12 05:59:55;;;;;;;23.60;11.77;;;;;;;;;;5048261;28;20075;-65
2021/04/12 06:02:36;;;;;;;26.23;11.60;;;;;;;;;;5044273;28;20473;-64
2021/04/12 06:05:13;;;;;;;32.92;11.07;;;;;;;;;;5046248;28;20098;-66
2021/04/12 06:07:57;;;;;;;17.80;9.30;;;;;;;;;;5047149;28;20028;-66
2021/04/12 06:10:41;;;;;;;24.10;9.65;;;;;;;;;;5042842;28;20456;-64
2021/04/12 06:13:12;;;;;;;17.70;9.13;;;;;;;;;;5047640;28;20024;-64
2021/04/12 06:15:37;;;;;;;25.33;10.43;;;;;;;;;;5047091;28;20473;-64
2021/04/12 06:18:05;;;;;;;23.75;10.27;;;;;;;;;;5049784;28;20032;-66
2021/04/12 06:20:49;;;;;;;21.15;11.48;;;;;;;;;;5047117;28;20024;-66
2021/04/12 06:23:34;;;;;;;26.45;12.52;;;;;;;;;;5044384;28;20471;-63
2021/04/12 06:26:05;;;;;;;26.17;11.77;;;;;;;;;;5049543;28;20064;-63
2021/04/12 06:28:49;;;;;;;23.92;11.55;;;;;;;;;;5050555;28;20036;-68
2021/04/12 06:31:33;;;;;;;25.33;12.02;;;;;;;;;;5043583;28;20434;-64
2021/04/12 06:34:00;;;;;;;23.08;12.75;;;;;;;;;;5049800;28;20025;-66
2021/04/12 06:36:32;;;;;;;33.30;13.70;;;;;;;;;;5046211;28;20021;-65
2021/04/12 06:39:07;;;;;;;27.65;13.48;;;;;;;;;;5048421;28;20048;-65
2021/04/12 06:41:50;;;;;;;25.00;11.75;;;;;;;;;;5049067;28;20025;-64
2021/04/12 06:44:29;;;;;;;21.83;10.88;;;;;;;;;;5049507;28;20025;-65
2021/04/12 06:46:57;;;;;;;18.90;10.10;;;;;;;;;;5049177;28;20028;-66
2021/04/12 06:49:41;;;;;;;16.58;9.80;;;;;;;;;;5049043;28;20041;-65
2021/04/12 06:52:26;;;;;;;21.08;8.50;;;;;;;;;;5048769;28;20028;-64
2021/04/12 06:55:10;;;;;;;21.15;8.90;;;;;;;;;;5046553;28;20031;-65
2021/04/12 06:57:54;;;;;;;14.40;8.68;;;;;;;;;;5044455;28;20032;-65
2021/04/12 07:00:51;;;;;;;18.27;8.45;;;;;;;;;;5051892;28;20025;-65
2021/04/12 07:03:16;;;;;;;28.23;8.90;;;;;;;;;;5005026;28;21507;-64
2021/04/12 07:05:51;;;;;;;23.35;11.65;;;;;;;;;;5048914;28;20010;-65
2021/04/12 07:08:19;;;;;;;19.70;10.40;;;;;;;;;;5046922;28;20994;-66
2021/04/12 07:11:02;;;;;;;20.35;8.95;;;;;;;;;;5047525;28;20021;-67
2021/04/12 07:13:36;;;;;;;21.45;9.55;;;;;;;;;;5046302;28;20041;-64
2021/04/12 07:16:20;;;;;;;22.48;10.00;;;;;;;;;;5041917;28;20024;-64
2021/04/12 07:19:04;;;;;;;16.63;9.10;;;;;;;;;;5048726;28;20018;-64
2021/04/12 07:21:29;;;;;;;16.25;9.05;;;;;;;;;;5043341;28;20025;-66
2021/04/12 07:24:13;;;;;;;16.03;8.43;;;;;;;;;;5047472;28;20048;-64
2021/04/12 07:26:41;;;;;;;21.27;9.40;;;;;;;;;;5050292;28;20632;-64
2021/04/12 07:29:09;;;;;;;21.58;9.38;;;;;;;;;;5053052;28;20017;-64
2021/04/12 07:31:49;;;;;;;19.85;9.45;;;;;;;;;;5050096;28;20020;-64
2021/04/12 07:34:33;;;;;;;20.42;9.10;;;;;;;;;;5052932;28;20021;-64
2021/04/12 07:37:01;;;;;;;20.15;10.25;;;;;;;;;;5033261;28;20063;-65
2021/04/12 07:39:38;;;;;;;19.17;9.05;;;;;;;;;;5051375;28;20025;-67
2021/04/12 07:42:03;;;;;;;29.25;11.13;;;;;;;;;;5044824;28;20021;-66
2021/04/12 07:44:41;;;;;;;23.57;9.67;;;;;;;;;;5052778;28;20037;-66
2021/04/12 07:47:09;;;;;;;15.95;9.52;;;;;;;;;;5048367;28;20279;-64
2021/04/12 07:49:52;;;;;;;18.30;9.18;;;;;;;;;;5052381;28;20017;-65
2021/04/12 07:52:36;;;;;;;18.42;9.00;;;;;;;;;;5052309;28;20028;-66
2021/04/12 07:55:02;;;;;;;20.02;9.77;;;;;;;;;;5050913;28;20378;-63
2021/04/12 07:57:46;;;;;;;19.58;10.48;;;;;;;;;;5052421;28;20031;-63
2021/04/12 08:00:17;;;;;;;20.80;10.52;;;;;;;;;;5047553;28;20032;-64
2021/04/12 08:02:48;;;;;;;22.92;11.32;;;;;;;;;;5052517;28;20112;-66
2021/04/12 08:05:41;;;;;;;23.85;12.38;;;;;;;;;;5051770;28;20017;-63
2021/04/12 08:08:25;;;;;;;27.25;11.93;;;;;;;;;;5041332;28;20313;-67
2021/04/12 08:11:09;;;;;;;25.05;10.43;;;;;;;;;;5051735;28;20706;-63
2021/04/12 08:13:34;;;;;;;20.92;10.23;;;;;;;;;;5052047;28;20013;-65
2021/04/12 08:16:35;;;;;;;19.10;10.82;;;;;;;;;;5050872;28;20361;-64
2021/04/12 08:19:00;;;;;;;;;;;;;;;;;;4972023;28;20801;-64
2021/04/12 08:21:43;;;;;;;25.95;16.02;;;;;;;;;;5035761;28;20361;-64
2021/04/12 08:24:31;;;;;;;20.65;12.77;;;;;;;;;;5047264;28;20066;-64
2021/04/12 08:27:24;;;;;;;24.08;13.27;;;;;;;;;;5051411;28;20092;-64
2021/04/12 08:30:08;;;;;;;29.45;15.40;;;;;;;;;;5052105;28;20777;-64
2021/04/12 08:32:59;;;;;;;30.80;15.90;;;;;;;;;;5048478;28;20029;-64
2021/04/12 08:35:54;;;;;;;25.50;14.48;;;;;;;;;;5050319;28;20044;-64
2021/04/12 08:38:38;;;;;;;25.42;15.18;;;;;;;;;;5051412;28;20096;-64
2021/04/12 08:41:03;;;;;;;31.33;15.38;;;;;;;;;;5039637;28;20025;-64
2021/04/12 08:43:28;;;;;;;18.38;8.63;;;;;;;;;;5050481;28;20354;-64
2021/04/12 08:46:29;;;;;;;18.60;12.20;;;;;;;;;;5049036;28;20033;-64
2021/04/12 08:48:57;;;;;;;24.85;17.25;;;;;;;;;;4986841;28;20285;-64
2021/04/12 08:51:43;;;;;;;32.20;18.42;;;;;;;;;;5039067;28;20036;-64
2021/04/12 08:54:16;;;;;;;30.92;18.05;;;;;;;;;;5051417;28;20046;-63
2021/04/12 08:56:56;;;;;;;33.60;22.30;;;;;;;;;;5051506;28;20013;-64
2021/04/12 08:59:22;;;;;;;;;;;;;;;;;;5049732;28;20029;-64
2021/04/12 09:02:05;;;;;;;25.85;12.93;;;;;;;;;;5051178;28;19919;-64
2021/04/12 09:04:51;;;;;;;40.60;24.17;;;;;;;;;;5027614;28;20262;-65
2021/04/12 09:07:29;;;;;;;37.88;22.90;;;;;;;;;;5047631;28;20517;-64
2021/04/12 09:10:09;;;;;;;35.92;21.85;;;;;;;;;;5051410;28;20024;-63
2021/04/12 09:12:34;;;;;;;;;;;;;;;;;;5048522;28;20017;-63
2021/04/12 09:14:59;;;;;;;36.35;22.13;;;;;;;;;;5049669;28;19958;-67
2021/04/12 09:17:30;;;;;;;44.10;24.40;;;;;;;;;;5047077;28;20090;-66
2021/04/12 09:20:14;;;;;;;45.20;26.13;;;;;;;;;;5051051;28;20673;-63
2021/04/12 09:22:58;;;;;;;33.35;22.40;;;;;;;;;;5051684;28;20029;-64
2021/04/12 09:25:26;;;;;;;46.95;24.67;;;;;;;;;;5051401;28;20108;-63
2021/04/12 09:28:00;;;;;;;33.10;21.13;;;;;;;;;;5050490;28;20024;-64
2021/04/12 09:30:44;;;;;;;38.80;22.88;;;;;;;;;;5051365;28;20021;-66
2021/04/12 09:33:12;;;;;;;33.17;19.75;;;;;;;;;;5051123;28;20543;-63
2021/04/12 09:35:55;;;;;;;37.72;20.15;;;;;;;;;;5051370;28;20365;-64
2021/04/12 09:38:32;;;;;;;31.15;17.63;;;;;;;;;;5050262;28;20048;-64
2021/04/12 09:41:03;;;;;;;28.42;16.33;;;;;;;;;;5051825;28;20687;-64
2021/04/12 09:43:47;;;;;;;26.15;15.45;;;;;;;;;;5051311;28;20028;-64
2021/04/12 09:46:21;;;;;;;25.65;14.35;;;;;;;;;;5049683;28;20029;-66
2021/04/12 09:49:05;;;;;;;22.80;14.63;;;;;;;;;;5033957;28;20021;-66
2021/04/12 09:51:49;;;;;;;25.23;13.57;;;;;;;;;;5047712;28;20021;-64
2021/04/12 09:54:32;;;;;;;26.98;15.68;;;;;;;;;;5051106;28;20386;-63
2021/04/12 09:57:33;;;;;;;29.30;15.02;;;;;;;;;;5049165;28;20021;-64
2021/04/12 10:00:17;;;;;;;27.55;16.13;;;;;;;;;;4968697;28;20643;-64
2021/04/12 10:03:01;;;;;;;31.83;15.30;;;;;;;;;;5027727;28;20051;-64
2021/04/12 10:05:35;;;;;;;34.60;17.42;;;;;;;;;;5046969;28;20028;-65
2021/04/12 10:08:00;;;;;;;33.75;18.67;;;;;;;;;;5041661;28;20543;-64
2021/04/12 10:10:33;;;;;;;30.40;19.37;;;;;;;;;;5048437;28;20025;-64
2021/04/12 10:13:21;;;;;;;32.20;18.08;;;;;;;;;;5047588;28;20267;-65
2021/04/12 10:15:47;;;;;;;29.85;17.05;;;;;;;;;;5047664;28;20108;-64
2021/04/12 10:18:25;;;;;;;26.77;14.13;;;;;;;;;;5051056;28;20597;-67
2021/04/12 10:20:55;;;;;;;26.23;14.65;;;;;;;;;;5048769;28;20032;-65
2021/04/12 10:23:22;;;;;;;23.20;14.15;;;;;;;;;;5048210;28;20028;-65
2021/04/12 10:25:48;;;;;;;25.23;14.20;;;;;;;;;;5049516;28;20029;-65
2021/04/12 10:28:22;;;;;;;20.08;13.00;;;;;;;;;;5049778;28;20025;-65
2021/04/12 10:30:50;;;;;;;27.45;9.52;;;;;;;;;;5045941;28;20013;-67
2021/04/12 10:33:23;;;;;;;12.85;7.90;;;;;;;;;;5050048;28;20025;-67
2021/04/12 10:35:50;;;;;;;13.05;7.75;;;;;;;;;;5049824;28;20105;-67
2021/04/12 10:38:15;;;;;;;12.27;7.13;;;;;;;;;;5049079;28;20032;-67
2021/04/12 10:40:50;;;;;;;15.07;7.00;;;;;;;;;;5045948;28;20669;-65
2021/04/12 10:43:26;;;;;;;15.30;7.40;;;;;;;;;;5048869;28;20266;-65
2021/04/12 10:45:55;;;;;;;14.63;6.60;;;;;;;;;;5049172;28;20057;-65
2021/04/12 10:48:20;;;;;;;12.98;7.82;;;;;;;;;;5050076;28;20369;-66
2021/04/12 10:50:53;;;;;;;14.77;7.47;;;;;;;;;;5049282;28;20027;-66
2021/04/12 10:53:34;;;;;;;12.43;7.53;;;;;;;;;;5049628;28;20289;-66
2021/04/12 10:56:08;;;;;;;12.57;7.43;;;;;;;;;;5047445;28;20107;-65
2021/04/12 10:58:54;;;;;;;15.00;7.18;;;;;;;;;;5046219;28;20021;-65
2021/04/12 11:01:38;;;;;;;15.52;8.85;;;;;;;;;;5047571;28;20036;-65
2021/04/12 11:04:04;;;;;;;20.50;8.23;;;;;;;;;;5049208;28;20029;-65
2021/04/12 11:06:38;;;;;;;16.05;8.45;;;;;;;;;;5049983;28;20083;-65
2021/04/12 11:09:11;;;;;;;12.00;7.00;;;;;;;;;;5048802;28;20043;-65
2021/04/12 11:11:55;;;;;;;12.38;6.75;;;;;;;;;;5048781;28;20017;-65
2021/04/12 11:14:24;;;;;;;13.55;6.57;;;;;;;;;;5049737;28;20032;-65
2021/04/12 11:16:52;;;;;;;15.00;6.72;;;;;;;;;;5050089;28;20056;-65
2021/04/12 11:19:17;;;;;;;13.00;7.57;;;;;;;;;;5049866;28;20029;-67
2021/04/12 11:22:04;;;;;;;12.20;7.55;;;;;;;;;;5042547;28;20021;-65
2021/04/12 11:24:37;;;;;;;15.73;7.35;;;;;;;;;;5047339;28;20071;-67
2021/04/12 11:27:21;;;;;;;15.43;9.57;;;;;;;;;;5049440;28;20043;-65
2021/04/12 11:30:00;;;;;;;13.35;5.55;;;;;;;;;;5026349;28;20014;-68
2021/04/12 11:32:45;;;;;;;11.63;3.42;;;;;;;;;;5042272;28;20112;-65
2021/04/12 11:35:15;;;;;;;8.73;3.42;;;;;;;;;;5046970;28;20084;-65
2021/04/12 11:37:58;;;;;;;7.40;3.38;;;;;;;;;;5046618;28;20021;-65
2021/04/12 11:40:27;;;;;;;6.55;3.08;;;;;;;;;;5048919;28;20024;-65
2021/04/12 11:42:54;;;;;;;5.13;2.30;;;;;;;;;;5049671;28;20112;-66
2021/04/12 11:45:24;;;;;;;11.70;2.70;;;;;;;;;;5049076;28;20021;-65
2021/04/12 11:47:49;;;;;;;7.30;2.20;;;;;;;;;;5049135;28;20090;-65
2021/04/12 11:50:28;;;;;;;5.82;2.40;;;;;;;;;;5049405;28;20021;-65
2021/04/12 11:52:58;;;;;;;5.45;2.47;;;;;;;;;;5048892;28;20013;-65
2021/04/12 11:55:23;;;;;;;;;;;;;;;;;;5048307;28;20091;-64
2021/04/12 11:58:00;;;;;;;4.72;2.40;;;;;;;;;;5049415;28;19996;-65
2021/04/12 12:00:34;;;;;;;4.35;1.75;;;;;;;;;;5043411;28;20039;-65
2021/04/12 12:03:07;;;;;;;3.33;1.80;;;;;;;;;;5051203;28;20131;-65
2021/04/12 12:05:38;;;;;;;5.18;2.28;;;;;;;;;;5053209;28;20703;-66
2021/04/12 12:08:06;;;;;;;;;;;;;;;;;;5052685;28;20029;-66
2021/04/12 12:10:37;;;;;;;2.78;1.90;;;;;;;;;;5050750;28;19909;-67
2021/04/12 12:13:11;;;;;;;6.82;2.78;;;;;;;;;;5053423;28;20373;-65
2021/04/12 12:15:55;;;;;;;6.85;2.35;;;;;;;;;;5044507;28;20021;-65
2021/04/12 12:18:23;;;;;;;10.38;2.88;;;;;;;;;;5051110;28;20017;-65
2021/04/12 12:20:57;;;;;;;8.18;3.00;;;;;;;;;;5033280;28;20056;-65
2021/04/12 12:23:41;;;;;;;7.18;2.60;;;;;;;;;;5047318;28;20469;-64
2021/04/12 12:26:09;;;;;;;4.57;2.63;;;;;;;;;;5049005;28;20048;-65
2021/04/12 12:28:45;;;;;;;6.25;2.55;;;;;;;;;;5052373;28;20024;-65
2021/04/12 12:31:30;;;;;;;10.38;2.70;;;;;;;;;;5048476;28;20017;-65
2021/04/12 12:34:15;;;;;;;8.10;1.77;;;;;;;;;;5053076;23;20044;-86
2021/04/12 12:36:49;;;;;;;5.72;2.13;;;;;;;;;;5017363;28;20018;-85
2021/04/12 12:39:27;;;;;;;8.45;2.65;;;;;;;;;;5027336;28;20026;-84
2021/04/12 12:41:57;;;;;;;5.95;3.40;;;;;;;;;;5015757;28;20025;-85
2021/04/12 12:44:23;;;;;;;8.77;4.07;;;;;;;;;;5015789;28;20017;-84
2021/04/12 12:46:49;;;;;;;7.32;4.10;;;;;;;;;;5031958;28;20029;-84
2021/04/12 12:49:21;;;;;;;11.82;4.10;;;;;;;;;;5030866;28;20277;-85
2021/04/12 12:51:48;;;;;;;10.18;4.90;;;;;;;;;;5016003;28;20049;-85
2021/04/12 12:54:40;;;;;;;11.45;4.07;;;;;;;;;;5030165;28;20100;-85
2021/04/12 12:57:30;;;;;;;8.02;3.60;;;;;;;;;;4986465;28;20037;-85
2021/04/12 13:00:38;;;;;;;7.88;4.90;;;;;;;;;;5014766;28;20089;-85
2021/04/12 13:03:14;;;;;;;9.75;5.55;;;;;;;;;;4998541;28;20029;-85
2021/04/12 13:06:06;;;;;;;8.50;5.13;;;;;;;;;;5036264;28;20099;-86
2021/04/12 13:08:37;;;;;;;8.10;4.90;;;;;;;;;;4949882;29;20051;-85
2021/04/12 13:11:29;;;;;;;8.25;4.20;;;;;;;;;;5024735;28;20025;-85
2021/04/12 13:14:30;;;;;;;;;;;;;;;;;;;;;
2021/04/12 13:17:24;;;;;;;;;;;;;;;;;;;;;
2021/04/12 13:19:58;;;;;;;7.07;4.32;;;;;;;;;;5026559;28;20114;-85
2021/04/12 13:22:32;;;;;;;10.00;4.57;;;;;;;;;;5013289;28;20029;-84
2021/04/12 13:25:29;;;;;;;6.45;3.92;;;;;;;;;;5023408;28;20216;-84
2021/04/12 13:28:15;;;;;;;6.30;3.97;;;;;;;;;;5011703;28;20033;-85
2021/04/12 13:30:48;;;;;;;9.93;4.30;;;;;;;;;;4998351;28;20030;-85
2021/04/12 13:33:34;;;;;;;7.75;3.83;;;;;;;;;;5014681;28;20033;-85
2021/04/12 13:36:08;;;;;;;12.63;6.25;;;;;;;;;;5015360;28;20045;-85
2021/04/12 13:38:56;;;;;;;13.68;4.93;;;;;;;;;;5052317;28;20017;-86
2021/04/12 13:41:45;;;;;;;9.55;6.03;;;;;;;;;;5018702;28;20110;-86
2021/04/12 13:44:28;;;;;;;18.83;6.10;;;;;;;;;;5030847;28;20025;-85
2021/04/12 13:47:00;;;;;;;11.45;4.57;;;;;;;;;;5029839;28;20532;-85
2021/04/12 13:49:38;;;;;;;5.82;3.90;;;;;;;;;;5011826;28;20465;-85
2021/04/12 13:52:10;;;;;;;10.15;4.95;;;;;;;;;;5027546;28;20397;-85
2021/04/12 13:54:45;;;;;;;6.22;4.32;;;;;;;;;;5012454;28;20028;-84
2021/04/12 13:57:17;;;;;;;9.23;4.80;;;;;;;;;;5029803;28;20055;-85
2021/04/12 13:59:46;;;;;;;6.47;4.13;;;;;;;;;;5024020;28;20021;-85
2021/04/12 14:02:27;;;;;;;12.95;3.90;;;;;;;;;;5029024;28;20055;-85
2021/04/12 14:05:01;;;;;;;5.18;3.80;;;;;;;;;;5018596;28;20172;-85
2021/04/12 14:07:41;;;;;;;6.85;3.50;;;;;;;;;;5018800;28;20022;-85
2021/04/12 14:10:09;;;;;;;;;;;;;;;;;;5029904;28;20026;-85
2021/04/12 14:12:38;;;;;;;6.07;3.80;;;;;;;;;;5012034;28;20478;-85
2021/04/12 14:15:06;;;;;;;15.18;4.40;;;;;;;;;;5010598;28;20025;-84
2021/04/12 14:17:37;;;;;;;8.02;4.25;;;;;;;;;;5011987;28;20044;-86
2021/04/12 14:20:08;;;;;;;11.02;4.10;;;;;;;;;;5011264;28;20018;-86
2021/04/12 14:22:35;;;;;;;7.82;3.85;;;;;;;;;;5010982;28;20106;-85
2021/04/12 14:25:12;;;;;;;6.90;4.03;;;;;;;;;;5028665;28;20025;-85
2021/04/12 14:27:38;;;;;;;5.78;3.47;;;;;;;;;;5029358;28;20024;-85
2021/04/12 14:30:10;;;;;;;5.20;3.30;;;;;;;;;;5011345;28;20564;-85
2021/04/12 14:32:39;;;;;;;5.72;3.95;;;;;;;;;;5027804;28;20071;-86
2021/04/12 14:35:19;;;;;;;10.60;5.13;;;;;;;;;;5007303;28;20025;-85
2021/04/12 14:37:44;;;;;;;;;;;;;;;;;;5030198;28;20028;-85
2021/04/12 14:40:21;;;;;;;6.97;3.97;;;;;;;;;;5011348;28;19913;-86
2021/04/12 14:42:53;;;;;;;8.13;4.57;;;;;;;;;;5011844;28;20025;-85
2021/04/12 14:45:22;;;;;;;13.95;4.30;;;;;;;;;;5011788;28;20025;-86
2021/04/12 14:47:51;;;;;;;7.60;5.30;;;;;;;;;;5021738;28;20384;-86
2021/04/12 14:50:21;;;;;;;9.38;4.10;;;;;;;;;;5026892;28;20025;-87
2021/04/12 14:52:52;;;;;;;5.65;3.35;;;;;;;;;;5010308;28;20013;-87
2021/04/12 14:55:17;;;;;;;7.80;4.15;;;;;;;;;;5009196;28;20037;-86
2021/04/12 14:57:43;;;;;;;8.10;4.20;;;;;;;;;;5028323;28;20028;-86
2021/04/12 15:00:17;;;;;;;6.65;3.63;;;;;;;;;;5011029;28;20099;-87
2021/04/12 15:02:46;;;;;;;5.30;4.18;;;;;;;;;;5012993;28;20098;-85
2021/04/12 15:05:14;;;;;;;5.82;4.05;;;;;;;;;;5039312;28;20431;-85
2021/04/12 15:07:44;;;;;;;7.93;3.70;;;;;;;;;;5020468;28;20029;-84
2021/04/12 15:10:09;;;;;;;;;;;;;;;;;;5020106;28;20065;-86
2021/04/12 15:12:36;;;;;;;8.65;3.75;;;;;;;;;;5038205;28;19908;-86
2021/04/12 15:15:12;;;;;;;6.18;3.58;;;;;;;;;;5021037;28;20159;-86
2021/04/12 15:17:57;;;;;;;9.23;5.35;;;;;;;;;;5022622;28;20025;-85
2021/04/12 15:20:33;;;;;;;7.05;4.47;;;;;;;;;;5030694;28;20021;-86
2021/04/12 15:23:01;;;;;;;10.00;7.05;;;;;;;;;;5030375;28;20036;-87
2021/04/12 15:25:30;;;;;;;10.60;6.47;;;;;;;;;;5011378;28;20110;-86